createdAt,value
2022-11-23T00:02:43.940Z,99.90
2022-11-23T00:05:32.448Z,99.90
2022-11-23T00:08:22.326Z,99.90
2022-11-23T00:11:10.744Z,99.90
2022-11-23T00:13:59.130Z,99.90
2022-11-23T00:16:47.547Z,99.90
2022-11-23T00:19:35.949Z,99.90
2022-11-23T00:22:24.897Z,99.90
2022-11-23T00:25:14.844Z,99.90
2022-11-23T00:28:03.311Z,99.90
2022-11-23T00:30:51.851Z,99.90
2022-11-23T00:33:40.284Z,99.90
2022-11-23T00:36:28.751Z,99.90
2022-11-23T00:39:17.453Z,99.90
2022-11-23T00:42:07.442Z,99.90
2022-11-23T00:44:55.850Z,99.90
2022-11-23T00:47:44.347Z,99.90
2022-11-23T00:50:32.758Z,99.90
2022-11-23T00:53:21.206Z,99.90
2022-11-23T00:56:09.710Z,99.90
2022-11-23T00:59:00.403Z,99.90
2022-11-23T01:01:50.340Z,99.90
2022-11-23T01:04:39.790Z,99.90
2022-11-23T01:07:30.448Z,99.90
2022-11-23T01:10:19.011Z,99.90
2022-11-23T01:13:07.403Z,99.90
2022-11-23T01:15:57.279Z,99.90
2022-11-23T01:18:45.711Z,99.90
2022-11-23T01:21:34.597Z,99.90
2022-11-23T01:24:24.205Z,99.90
2022-11-23T01:27:12.606Z,99.90
2022-11-23T01:30:01.011Z,99.90
2022-11-23T01:32:50.793Z,99.90
2022-11-23T01:35:40.008Z,99.90
2022-11-23T01:38:28.411Z,99.90
2022-11-23T01:41:18.804Z,99.90
2022-11-23T01:44:27.447Z,99.90
2022-11-23T01:47:16.305Z,99.90
2022-11-23T01:50:07.195Z,99.90
2022-11-23T01:52:55.622Z,99.90
2022-11-23T01:55:44.193Z,99.90
2022-11-23T01:58:35.764Z,99.90
2022-11-23T02:01:25.907Z,99.90
2022-11-23T02:04:20.826Z,99.90
2022-11-23T02:07:10.621Z,99.90
2022-11-23T02:09:59.191Z,99.90
2022-11-23T02:12:47.628Z,99.90
2022-11-23T02:15:36.188Z,99.90
2022-11-23T02:18:26.230Z,99.90
2022-11-23T02:21:14.723Z,99.90
2022-11-23T02:24:12.703Z,99.90
2022-11-23T02:27:03.483Z,99.90
2022-11-23T02:29:51.905Z,99.90
2022-11-23T02:32:42.137Z,99.90
2022-11-23T02:35:30.524Z,99.90
2022-11-23T02:38:20.472Z,99.90
2022-11-23T02:41:08.872Z,99.90
2022-11-23T02:43:58.613Z,99.90
2022-11-23T02:46:47.625Z,99.90
2022-11-23T02:49:36.766Z,99.90
2022-11-23T02:52:25.370Z,99.90
2022-11-23T02:55:13.797Z,99.90
2022-11-23T02:58:02.347Z,99.90
2022-11-23T03:00:52.120Z,99.90
2022-11-23T03:03:41.434Z,99.90
2022-11-23T03:06:29.787Z,99.90
2022-11-23T03:09:18.267Z,99.90
2022-11-23T03:12:07.492Z,99.90
2022-11-23T03:14:55.949Z,99.90
2022-11-23T03:17:46.930Z,99.90
2022-11-23T03:20:36.827Z,99.90
2022-11-23T03:23:26.464Z,99.90
2022-11-23T03:26:15.181Z,99.90
2022-11-23T03:29:11.471Z,99.90
2022-11-23T03:32:01.349Z,99.90
2022-11-23T03:34:51.234Z,99.90
2022-11-23T03:37:42.007Z,99.90
2022-11-23T03:40:31.149Z,99.90
2022-11-23T03:43:30.141Z,99.90
2022-11-23T03:46:19.130Z,99.90
2022-11-23T03:49:07.778Z,99.90
2022-11-23T03:51:57.657Z,99.90
2022-11-23T03:54:48.387Z,99.90
2022-11-23T03:57:37.728Z,99.90
2022-11-23T04:00:27.341Z,99.90
2022-11-23T04:03:15.931Z,99.90
2022-11-23T04:06:36.740Z,99.90
2022-11-23T04:09:33.326Z,99.90
2022-11-23T04:12:27.981Z,99.90
2022-11-23T04:15:17.516Z,99.90
2022-11-23T04:18:06.213Z,99.90
2022-11-23T04:20:54.861Z,99.90
2022-11-23T04:23:43.478Z,99.90
2022-11-23T04:26:34.950Z,99.90
2022-11-23T04:29:23.659Z,99.90
2022-11-23T04:32:14.941Z,99.90
2022-11-23T04:35:04.101Z,99.90
2022-11-23T04:37:53.013Z,99.90
2022-11-23T04:40:43.926Z,99.90
2022-11-23T04:43:34.384Z,99.90
2022-11-23T04:46:24.083Z,99.90
2022-11-23T04:49:12.850Z,99.90
2022-11-23T04:52:01.261Z,99.90
2022-11-23T04:54:56.059Z,99.90
2022-11-23T04:57:45.353Z,99.90
2022-11-23T05:00:35.139Z,99.90
2022-11-23T05:03:25.574Z,99.90
2022-11-23T05:06:14.045Z,99.90
2022-11-23T05:09:03.943Z,99.90
2022-11-23T05:12:21.636Z,99.90
2022-11-23T05:15:12.076Z,99.90
2022-11-23T05:18:06.347Z,99.90
2022-11-23T05:20:55.705Z,99.90
2022-11-23T05:23:44.166Z,99.90
2022-11-23T05:26:32.707Z,99.90
2022-11-23T05:29:21.310Z,99.90
2022-11-23T05:32:09.866Z,99.90
2022-11-23T05:35:01.294Z,99.90
2022-11-23T05:37:51.929Z,99.90
2022-11-23T05:40:40.568Z,99.90
2022-11-23T05:43:30.912Z,99.90
2022-11-23T05:46:19.782Z,99.90
2022-11-23T05:49:08.649Z,99.90
2022-11-23T05:52:00.823Z,99.90
2022-11-23T05:54:53.355Z,99.90
2022-11-23T05:57:42.481Z,99.90
2022-11-23T06:00:30.878Z,99.90
2022-11-23T06:03:24.053Z,99.90
2022-11-23T06:06:12.516Z,99.90
2022-11-23T06:09:05.171Z,99.90
2022-11-23T06:11:55.794Z,99.90
2022-11-23T06:14:44.274Z,99.90
2022-11-23T06:17:33.105Z,99.90
2022-11-23T06:20:25.219Z,99.90
2022-11-23T06:23:19.757Z,99.90
2022-11-23T06:26:09.641Z,99.90
2022-11-23T06:28:58.432Z,99.90
2022-11-23T06:31:47.115Z,99.90
2022-11-23T06:34:35.618Z,99.90
2022-11-23T06:37:24.042Z,99.90
2022-11-23T06:40:14.761Z,99.90
2022-11-23T06:43:05.624Z,99.90
2022-11-23T06:46:00.509Z,99.90
2022-11-23T06:48:51.117Z,99.90
2022-11-23T06:51:39.587Z,99.90
2022-11-23T06:54:28.274Z,99.90
2022-11-23T06:57:17.642Z,99.90
2022-11-23T07:00:11.149Z,99.90
2022-11-23T07:03:00.472Z,99.90
2022-11-23T07:05:31.672Z,99.90
2022-11-23T07:07:59.938Z,99.90
2022-11-23T07:10:29.390Z,99.90
2022-11-23T07:13:05.700Z,99.90
2022-11-23T07:15:35.803Z,99.90
2022-11-23T07:18:04.006Z,99.90
2022-11-23T07:20:33.570Z,99.90
2022-11-23T07:23:02.647Z,99.90
2022-11-23T07:25:30.869Z,99.90
2022-11-23T07:28:01.112Z,99.90
2022-11-23T07:30:30.968Z,99.90
2022-11-23T07:33:02.380Z,99.90
2022-11-23T07:35:31.682Z,99.90
2022-11-23T07:37:59.868Z,99.90
2022-11-23T07:40:28.204Z,99.90
2022-11-23T07:43:00.993Z,99.90
2022-11-23T07:45:29.135Z,99.90
2022-11-23T07:48:02.944Z,99.90
2022-11-23T07:50:31.401Z,99.90
2022-11-23T07:52:59.540Z,99.90
2022-11-23T07:55:28.429Z,99.90
2022-11-23T07:57:56.551Z,99.90
2022-11-23T08:00:25.126Z,99.90
2022-11-23T08:03:25.663Z,99.90
2022-11-23T08:05:42.732Z,99.90
2022-11-23T08:08:11.801Z,99.90
2022-11-23T08:10:45.058Z,99.90
2022-11-23T08:13:15.386Z,99.90
2022-11-23T08:15:44.890Z,99.90
2022-11-23T08:18:14.758Z,99.90
2022-11-23T08:20:44.394Z,99.90
2022-11-23T08:23:12.737Z,99.90
2022-11-23T08:25:41.095Z,99.90
2022-11-23T08:28:09.267Z,99.90
2022-11-23T08:30:37.572Z,99.90
2022-11-23T08:33:06.503Z,99.90
2022-11-23T08:35:34.753Z,99.90
2022-11-23T08:38:04.393Z,99.90
2022-11-23T08:40:32.583Z,99.90
2022-11-23T08:43:00.685Z,99.90
2022-11-23T08:45:28.849Z,99.90
2022-11-23T08:48:00.902Z,99.90
2022-11-23T08:50:29.590Z,99.90
2022-11-23T08:52:57.951Z,99.90
2022-11-23T08:55:27.737Z,99.90
2022-11-23T08:57:56.805Z,99.90
2022-11-23T09:00:25.543Z,99.90
2022-11-23T09:02:53.645Z,99.90
2022-11-23T09:05:21.732Z,99.90
2022-11-23T09:07:49.976Z,99.90
2022-11-23T09:10:19.326Z,99.90
2022-11-23T09:12:49.385Z,99.90
2022-11-23T09:15:17.550Z,99.90
2022-11-23T09:17:45.837Z,99.90
2022-11-23T09:20:14.091Z,99.90
2022-11-23T09:22:42.203Z,99.90
2022-11-23T09:25:10.514Z,99.90
2022-11-23T09:27:38.673Z,99.90
2022-11-23T09:30:10.467Z,99.90
2022-11-23T09:32:38.574Z,99.90
2022-11-23T09:35:08.063Z,99.90
2022-11-23T09:37:36.268Z,99.90
2022-11-23T09:40:04.928Z,99.90
2022-11-23T09:43:04.557Z,99.90
2022-11-23T09:45:37.693Z,98.70
2022-11-23T09:48:42.579Z,98.10
2022-11-23T09:51:15.818Z,98.50
2022-11-23T09:53:46.809Z,98.90
2022-11-23T09:56:18.866Z,98.50
2022-11-23T09:58:47.050Z,98.80
2022-11-23T10:01:16.917Z,98.00
2022-11-23T10:03:49.200Z,98.30
2022-11-23T10:06:20.526Z,98.20
2022-11-23T10:09:07.805Z,97.90
2022-11-23T10:11:55.844Z,97.50
2022-11-23T10:14:39.802Z,97.70
2022-11-23T10:17:16.249Z,98.00
2022-11-23T10:20:04.513Z,97.20
2022-11-23T10:22:36.387Z,95.40
2022-11-23T10:25:10.860Z,96.80
2022-11-23T10:27:38.953Z,96.10
2022-11-23T10:30:12.790Z,95.90
2022-11-23T10:32:45.817Z,95.50
2022-11-23T10:35:15.340Z,95.20
2022-11-23T10:37:43.571Z,95.50
2022-11-23T10:40:17.324Z,95.70
2022-11-23T10:42:47.900Z,95.00
2022-11-23T10:45:23.421Z,94.80
2022-11-23T10:47:54.856Z,94.80
2022-11-23T10:50:29.868Z,94.60
2022-11-23T10:52:59.191Z,94.70
2022-11-23T10:55:29.989Z,94.80
2022-11-23T10:57:58.283Z,93.80
2022-11-23T11:00:30.845Z,94.20
2022-11-23T11:03:02.354Z,94.00
2022-11-23T11:06:14.936Z,93.60
2022-11-23T11:08:22.025Z,91.70
2022-11-23T11:10:51.025Z,91.70
2022-11-23T11:13:24.747Z,91.60
2022-11-23T11:15:54.767Z,91.00
2022-11-23T11:18:26.825Z,91.30
2022-11-23T11:20:58.849Z,91.00
2022-11-23T11:23:27.058Z,90.70
2022-11-23T11:26:06.356Z,91.70
2022-11-23T11:28:37.937Z,91.80
2022-11-23T11:31:22.273Z,92.30
2022-11-23T11:33:56.789Z,91.80
2022-11-23T11:36:25.152Z,92.20
2022-11-23T11:39:17.077Z,92.50
2022-11-23T11:41:41.991Z,93.10
2022-11-23T11:44:15.058Z,93.40
2022-11-23T11:46:46.900Z,93.60
2022-11-23T11:49:18.995Z,93.60
2022-11-23T11:51:48.391Z,93.80
2022-11-23T11:54:21.547Z,93.50
2022-11-23T11:56:51.591Z,93.10
2022-11-23T11:59:23.612Z,92.90
2022-11-23T12:01:56.913Z,92.40
2022-11-23T12:04:31.980Z,92.50
2022-11-23T12:07:05.576Z,92.10
2022-11-23T12:09:36.355Z,92.30
2022-11-23T12:12:05.027Z,92.50
2022-11-23T12:14:33.532Z,92.30
2022-11-23T12:17:31.424Z,92.40
2022-11-23T12:19:59.110Z,92.30
2022-11-23T12:22:37.304Z,91.40
2022-11-23T12:25:21.588Z,90.60
2022-11-23T12:27:59.196Z,91.20
2022-11-23T12:30:30.969Z,91.40
2022-11-23T12:33:19.396Z,90.40
2022-11-23T12:36:04.073Z,90.10
2022-11-23T12:38:34.684Z,89.60
2022-11-23T12:41:15.599Z,90.10
2022-11-23T12:43:58.706Z,89.40
2022-11-23T12:46:31.064Z,88.00
2022-11-23T12:49:19.344Z,86.30
2022-11-23T12:51:54.842Z,85.90
2022-11-23T12:54:36.191Z,85.70
2022-11-23T12:57:11.222Z,85.50
2022-11-23T12:59:44.972Z,85.60
2022-11-23T13:02:27.665Z,86.20
2022-11-23T13:05:29.705Z,85.90
2022-11-23T13:08:11.023Z,85.90
2022-11-23T13:11:02.204Z,87.30
2022-11-23T13:13:55.434Z,87.80
2022-11-23T13:16:36.083Z,85.90
2022-11-23T13:19:20.871Z,87.30
2022-11-23T13:21:48.971Z,85.00
2022-11-23T13:24:28.724Z,85.00
2022-11-23T13:27:31.615Z,83.00
2022-11-23T13:30:01.348Z,84.20
2022-11-23T13:32:36.201Z,86.10
2022-11-23T13:35:04.488Z,84.50
2022-11-23T13:37:32.668Z,86.10
2022-11-23T13:40:04.553Z,85.70
2022-11-23T13:42:33.692Z,84.10
2022-11-23T13:45:30.623Z,82.30
2022-11-23T13:51:07.096Z,83.80
2022-11-23T13:53:36.124Z,85.00
2022-11-23T13:56:34.164Z,83.20
2022-11-23T13:59:33.367Z,82.00
2022-11-23T14:02:29.352Z,79.80
2022-11-23T14:05:54.559Z,80.50
2022-11-23T14:08:22.694Z,79.50
2022-11-23T14:10:50.867Z,81.50
2022-11-23T14:13:21.599Z,80.60
2022-11-23T14:15:56.185Z,79.00
2022-11-23T14:18:53.530Z,78.70
2022-11-23T14:21:23.044Z,78.50
2022-11-23T14:24:26.180Z,78.30
2022-11-23T14:27:30.825Z,76.80
2022-11-23T14:30:21.799Z,75.80
2022-11-23T14:33:04.589Z,75.00
2022-11-23T14:35:34.745Z,73.60
2022-11-23T14:38:40.182Z,72.80
2022-11-23T14:41:09.324Z,70.50
2022-11-23T14:43:37.746Z,72.50
2022-11-23T14:46:15.417Z,73.20
2022-11-23T14:48:43.691Z,72.60
2022-11-23T14:51:14.293Z,73.20
2022-11-23T14:53:46.884Z,72.50
2022-11-23T14:56:30.749Z,72.50
2022-11-23T14:59:02.310Z,71.90
2022-11-23T15:01:32.080Z,71.20
2022-11-23T15:04:01.431Z,71.00
2022-11-23T15:06:31.951Z,72.20
2022-11-23T15:09:07.652Z,73.50
2022-11-23T15:11:36.580Z,73.50
2022-11-23T15:14:05.681Z,74.80
2022-11-23T15:16:42.751Z,74.50
2022-11-23T15:19:21.513Z,75.60
2022-11-23T15:21:49.857Z,75.20
2022-11-23T15:24:23.423Z,76.00
2022-11-23T15:26:51.827Z,77.30
2022-11-23T15:29:34.240Z,77.70
2022-11-23T15:34:54.805Z,80.20
2022-11-23T15:37:24.427Z,80.40
2022-11-23T15:39:53.176Z,80.60
2022-11-23T15:42:23.465Z,81.40
2022-11-23T15:44:53.900Z,82.10
2022-11-23T15:47:27.277Z,82.40
2022-11-23T15:50:01.225Z,83.80
2022-11-23T15:52:30.954Z,84.40
2022-11-23T15:55:03.232Z,84.80
2022-11-23T15:57:34.148Z,84.60
2022-11-23T16:00:04.174Z,85.30
2022-11-23T16:02:42.764Z,86.50
2022-11-23T16:05:14.515Z,86.90
2022-11-23T16:07:53.989Z,87.40
2022-11-23T16:10:24.514Z,87.90
2022-11-23T16:12:53.798Z,88.00
2022-11-23T16:15:40.726Z,88.30
2022-11-23T16:18:24.689Z,88.90
2022-11-23T16:20:55.095Z,89.10
2022-11-23T16:23:25.642Z,88.80
2022-11-23T16:25:56.530Z,88.90
2022-11-23T16:28:28.846Z,88.90
2022-11-23T16:30:57.825Z,88.80
2022-11-23T16:33:27.582Z,88.70
2022-11-23T16:35:55.915Z,88.80
2022-11-23T16:38:24.806Z,88.80
2022-11-23T16:40:53.331Z,89.00
2022-11-23T16:43:22.015Z,88.90
2022-11-23T16:45:51.629Z,88.90
2022-11-23T16:48:40.558Z,88.70
2022-11-23T16:51:11.229Z,88.80
2022-11-23T16:54:08.242Z,88.90
2022-11-23T16:56:27.992Z,89.30
2022-11-23T16:58:57.022Z,89.50
2022-11-23T17:01:26.915Z,89.60
2022-11-23T17:03:56.755Z,89.80
2022-11-23T17:06:25.207Z,90.10
2022-11-23T17:09:00.440Z,89.90
2022-11-23T17:11:31.694Z,89.80
2022-11-23T17:14:00.109Z,89.80
2022-11-23T17:16:28.494Z,90.20
2022-11-23T17:18:58.240Z,90.60
2022-11-23T17:21:26.515Z,90.90
2022-11-23T17:23:54.865Z,91.20
2022-11-23T17:26:31.201Z,91.50
2022-11-23T17:29:00.929Z,92.30
2022-11-23T17:31:29.591Z,91.90
2022-11-23T17:33:59.394Z,92.20
2022-11-23T17:36:27.732Z,92.60
2022-11-23T17:38:56.106Z,92.80
2022-11-23T17:41:24.474Z,93.10
2022-11-23T17:43:52.823Z,93.40
2022-11-23T17:46:22.467Z,93.40
2022-11-23T17:48:51.241Z,93.80
2022-11-23T17:51:20.932Z,94.10
2022-11-23T17:53:49.178Z,94.50
2022-11-23T17:56:19.464Z,94.50
2022-11-23T17:58:48.125Z,95.10
2022-11-23T18:01:17.442Z,95.20
2022-11-23T18:03:46.161Z,95.50
2022-11-23T18:06:15.297Z,95.60
2022-11-23T18:08:45.237Z,95.90
2022-11-23T18:11:13.860Z,96.30
2022-11-23T18:13:42.486Z,96.20
2022-11-23T18:16:11.031Z,96.30
2022-11-23T18:18:39.279Z,96.50
2022-11-23T18:21:09.646Z,96.80
2022-11-23T18:23:38.106Z,96.90
2022-11-23T18:26:19.689Z,97.10
2022-11-23T18:28:48.021Z,97.80
2022-11-23T18:31:16.567Z,97.40
2022-11-23T18:33:44.888Z,97.50
2022-11-23T18:36:13.712Z,97.70
2022-11-23T18:38:42.254Z,98.00
2022-11-23T18:41:12.158Z,98.30
2022-11-23T18:43:40.309Z,99.00
2022-11-23T18:46:10.188Z,98.70
2022-11-23T18:48:38.464Z,99.00
2022-11-23T18:51:11.578Z,99.40
2022-11-23T18:53:40.221Z,99.30
2022-11-23T18:56:09.587Z,99.10
2022-11-23T18:58:40.200Z,99.90
2022-11-23T19:01:12.191Z,99.70
2022-11-23T19:03:42.590Z,99.70
2022-11-23T19:06:13.388Z,99.70
2022-11-23T19:08:42.308Z,99.80
2022-11-23T19:11:15.784Z,99.90
2022-11-23T19:13:45.863Z,99.90
2022-11-23T19:16:15.938Z,99.90
2022-11-23T19:18:45.073Z,99.90
2022-11-23T19:21:14.877Z,99.90
2022-11-23T19:23:43.048Z,99.90
2022-11-23T19:26:11.345Z,99.90
2022-11-23T19:28:44.434Z,99.90
2022-11-23T19:31:15.488Z,99.90
2022-11-23T19:33:43.982Z,99.90
2022-11-23T19:36:13.720Z,99.90
2022-11-23T19:38:42.552Z,99.90
2022-11-23T19:41:11.262Z,99.90
2022-11-23T19:43:39.816Z,99.90
2022-11-23T19:46:10.211Z,99.90
2022-11-23T19:48:40.088Z,99.90
2022-11-23T19:51:09.320Z,99.90
2022-11-23T19:53:39.007Z,99.90
2022-11-23T19:56:09.013Z,99.90
2022-11-23T19:58:37.682Z,99.90
2022-11-23T20:01:07.117Z,99.90
2022-11-23T20:03:35.472Z,99.90
2022-11-23T20:06:06.908Z,99.90
2022-11-23T20:08:35.171Z,99.90
2022-11-23T20:11:07.927Z,99.90
2022-11-23T20:13:36.249Z,99.90
2022-11-23T20:16:04.976Z,99.90
2022-11-23T20:18:33.218Z,99.90
2022-11-23T20:21:01.742Z,99.90
2022-11-23T20:23:31.370Z,99.90
2022-11-23T20:25:59.702Z,99.90
2022-11-23T20:28:28.198Z,99.90
2022-11-23T20:30:56.388Z,99.90
2022-11-23T20:33:24.562Z,99.90
2022-11-23T20:35:52.865Z,99.90
2022-11-23T20:38:21.052Z,99.90
2022-11-23T20:40:50.555Z,99.90
2022-11-23T20:43:18.860Z,99.90
2022-11-23T20:45:47.024Z,99.90
2022-11-23T20:48:15.232Z,99.90
2022-11-23T20:50:43.376Z,99.90
2022-11-23T20:53:11.569Z,99.90
2022-11-23T20:55:39.691Z,99.90
2022-11-23T20:58:09.164Z,99.90
2022-11-23T21:00:37.309Z,99.90
2022-11-23T21:03:24.177Z,99.90
2022-11-23T21:06:13.931Z,99.90
2022-11-23T21:09:02.337Z,99.90
2022-11-23T21:12:08.316Z,99.90
2022-11-23T21:14:58.110Z,99.90
2022-11-23T21:17:46.565Z,99.90
2022-11-23T21:20:36.651Z,99.90
2022-11-23T21:23:25.267Z,99.90
2022-11-23T21:26:14.823Z,99.90
2022-11-23T21:29:04.226Z,99.90
2022-11-23T21:31:54.235Z,99.90
2022-11-23T21:34:42.697Z,99.90
2022-11-23T21:37:31.503Z,99.90
2022-11-23T21:40:19.923Z,99.90
2022-11-23T21:43:08.490Z,99.90
2022-11-23T21:46:01.042Z,99.90
2022-11-23T21:48:53.023Z,99.90
2022-11-23T21:51:42.553Z,99.90
2022-11-23T21:54:31.198Z,99.90
2022-11-23T21:57:19.585Z,99.90
2022-11-23T22:00:10.404Z,99.90
2022-11-23T22:03:00.675Z,99.90
2022-11-23T22:05:57.922Z,99.90
2022-11-23T22:08:48.600Z,99.90
2022-11-23T22:11:37.771Z,99.90
2022-11-23T22:14:26.288Z,99.90
2022-11-23T22:17:14.665Z,99.90
2022-11-23T22:20:04.492Z,99.90
2022-11-23T22:22:54.256Z,99.90
2022-11-23T22:25:47.937Z,99.90
2022-11-23T22:28:37.736Z,99.90
2022-11-23T22:31:27.676Z,99.90
2022-11-23T22:34:16.367Z,99.90
2022-11-23T22:37:10.203Z,99.90
2022-11-23T22:40:01.251Z,99.90
2022-11-23T22:42:49.663Z,99.90
2022-11-23T22:45:38.206Z,99.90
2022-11-23T22:48:27.106Z,99.90
2022-11-23T22:51:16.835Z,99.90
2022-11-23T22:54:05.642Z,99.90
2022-11-23T22:56:55.416Z,99.90
2022-11-23T22:59:43.852Z,99.90
2022-11-23T23:02:32.673Z,99.90
2022-11-23T23:05:21.168Z,99.90
2022-11-23T23:08:10.386Z,99.90
2022-11-23T23:11:04.422Z,99.90
2022-11-23T23:13:54.413Z,99.90
2022-11-23T23:16:42.922Z,99.90
2022-11-23T23:19:31.439Z,99.90
2022-11-23T23:22:20.204Z,99.90
2022-11-23T23:25:09.762Z,99.90
2022-11-23T23:27:58.294Z,99.90
2022-11-23T23:30:48.122Z,99.90
2022-11-23T23:33:36.695Z,99.90
2022-11-23T23:36:25.224Z,99.90
2022-11-23T23:39:13.898Z,99.90
2022-11-23T23:42:02.438Z,99.90
2022-11-23T23:44:50.857Z,99.90
2022-11-23T23:47:40.882Z,99.90
2022-11-23T23:50:29.320Z,99.90
2022-11-23T23:53:17.712Z,99.90
2022-11-23T23:56:08.465Z,99.90
2022-11-23T23:58:57.748Z,99.90
